createdAt,value
2022-11-14T00:00:35.497Z,76887.72
2022-11-14T00:03:05.315Z,76901.97
2022-11-14T00:05:33.544Z,76901.97
2022-11-14T00:08:01.313Z,76924.41
2022-11-14T00:10:29.083Z,76922.38
2022-11-14T00:12:58.282Z,76901.97
2022-11-14T00:15:26.077Z,76912.19
2022-11-14T00:17:53.816Z,76938.69
2022-11-14T00:20:21.634Z,76940.72
2022-11-14T00:22:49.401Z,76959.09
2022-11-14T00:25:17.412Z,76975.41
2022-11-14T00:27:45.252Z,76977.44
2022-11-14T00:30:14.779Z,76977.44
2022-11-14T00:32:42.716Z,76987.63
2022-11-14T00:35:10.908Z,76999.88
2022-11-14T00:37:38.731Z,77008.03
2022-11-14T00:40:07.226Z,77016.19
2022-11-14T00:42:35.673Z,77030.47
2022-11-14T00:45:03.461Z,77044.75
2022-11-14T00:47:32.590Z,77056.97
2022-11-14T00:50:00.426Z,77061.06
2022-11-14T00:52:28.203Z,77052.91
2022-11-14T00:54:55.967Z,77065.13
2022-11-14T00:57:23.827Z,77069.22
2022-11-14T00:59:51.596Z,77067.16
2022-11-14T01:02:19.359Z,77065.13
2022-11-14T01:04:48.599Z,77071.25
2022-11-14T01:07:16.364Z,77071.25
2022-11-14T01:09:44.183Z,77075.31
2022-11-14T01:12:12.156Z,77085.53
2022-11-14T01:14:40.526Z,77079.41
2022-11-14T01:17:08.887Z,77081.44
2022-11-14T01:19:36.813Z,77093.69
2022-11-14T01:22:06.621Z,77077.38
2022-11-14T01:24:35.192Z,77069.22
2022-11-14T01:27:03.302Z,77048.81
2022-11-14T01:29:31.143Z,77012.09
2022-11-14T01:31:58.891Z,76973.38
2022-11-14T01:34:26.761Z,76942.78
2022-11-14T01:36:54.542Z,76922.38
2022-11-14T01:39:23.867Z,76934.63
2022-11-14T01:41:51.686Z,76955.00
2022-11-14T01:44:42.303Z,76999.88
2022-11-14T01:47:12.365Z,77020.25
2022-11-14T01:49:42.707Z,77024.34
2022-11-14T01:52:13.066Z,77028.41
2022-11-14T01:54:46.771Z,77028.41
2022-11-14T01:57:18.543Z,77012.09
2022-11-14T01:59:55.593Z,77020.25
2022-11-14T02:02:25.305Z,77020.25
2022-11-14T02:04:58.540Z,77016.19
2022-11-14T02:07:29.556Z,77010.06
2022-11-14T02:10:01.883Z,77010.06
2022-11-14T02:12:30.546Z,77020.25
2022-11-14T02:15:00.228Z,77020.25
2022-11-14T02:17:30.018Z,77034.53
2022-11-14T02:20:08.154Z,77052.91
2022-11-14T02:22:36.016Z,77065.13
2022-11-14T02:25:04.060Z,77069.22
2022-11-14T02:27:33.974Z,77061.06
2022-11-14T02:30:06.199Z,77065.13
2022-11-14T02:32:56.855Z,77075.31
2022-11-14T02:35:23.137Z,77081.44
2022-11-14T02:37:50.977Z,77089.59
2022-11-14T02:40:18.866Z,77087.56
2022-11-14T02:42:46.635Z,77089.59
2022-11-14T02:45:14.697Z,77085.53
2022-11-14T02:47:42.488Z,77085.53
2022-11-14T02:50:10.853Z,77085.53
2022-11-14T02:52:40.060Z,77095.72
2022-11-14T02:55:08.486Z,77110.00
2022-11-14T02:57:36.323Z,77122.22
2022-11-14T03:00:06.781Z,77126.31
2022-11-14T03:02:37.842Z,77124.28
2022-11-14T03:05:06.154Z,77118.16
2022-11-14T03:07:34.017Z,77110.00
2022-11-14T03:10:03.205Z,77105.91
2022-11-14T03:12:31.049Z,77112.03
2022-11-14T03:14:58.815Z,77114.06
2022-11-14T03:17:26.615Z,77101.84
2022-11-14T03:19:54.471Z,77103.88
2022-11-14T03:22:22.260Z,77107.97
2022-11-14T03:24:50.044Z,77099.81
2022-11-14T03:27:19.339Z,77077.38
2022-11-14T03:29:47.085Z,77048.81
2022-11-14T03:32:14.864Z,77052.91
2022-11-14T03:34:43.361Z,77052.91
2022-11-14T03:37:11.629Z,77059.00
2022-11-14T03:39:39.407Z,77052.91
2022-11-14T03:42:07.246Z,77048.81
2022-11-14T03:44:36.399Z,77024.34
2022-11-14T03:47:04.254Z,77026.38
2022-11-14T03:49:32.175Z,77030.47
2022-11-14T03:51:59.975Z,77038.63
2022-11-14T03:54:27.826Z,77030.47
2022-11-14T03:56:55.651Z,76995.78
2022-11-14T03:59:23.442Z,76942.78
2022-11-14T04:01:52.746Z,76932.56
2022-11-14T04:04:20.654Z,76936.66
2022-11-14T04:06:48.495Z,76959.09
2022-11-14T04:09:16.309Z,76971.31
2022-11-14T04:11:44.145Z,76979.47
2022-11-14T04:14:12.010Z,76979.47
2022-11-14T04:16:39.753Z,76991.72
2022-11-14T04:19:09.070Z,77001.91
2022-11-14T04:21:36.841Z,77012.09
2022-11-14T04:24:10.812Z,77012.09
2022-11-14T04:26:39.048Z,77016.19
2022-11-14T04:29:06.853Z,76995.78
2022-11-14T04:31:34.603Z,76979.47
2022-11-14T04:34:02.564Z,76959.09
2022-11-14T04:36:31.689Z,76930.53
2022-11-14T04:38:59.496Z,76930.53
2022-11-14T04:41:27.314Z,76940.72
2022-11-14T04:43:55.097Z,76946.84
2022-11-14T04:46:22.903Z,76963.16
2022-11-14T04:48:50.822Z,76967.25
2022-11-14T04:51:18.782Z,76963.16
2022-11-14T04:53:47.941Z,76963.16
2022-11-14T04:56:15.811Z,76963.16
2022-11-14T04:58:43.677Z,76946.84
2022-11-14T05:01:12.441Z,76955.00
2022-11-14T05:03:40.321Z,76965.19
2022-11-14T05:06:08.725Z,76971.31
2022-11-14T05:08:36.543Z,76977.44
2022-11-14T05:11:05.880Z,76979.47
2022-11-14T05:13:33.661Z,76983.56
2022-11-14T05:16:02.280Z,76983.56
2022-11-14T05:18:30.410Z,76987.63
2022-11-14T05:21:00.110Z,76967.25
2022-11-14T05:23:28.668Z,76971.31
2022-11-14T05:26:01.396Z,76967.25
2022-11-14T05:28:31.336Z,76946.84
2022-11-14T05:31:03.768Z,76938.69
2022-11-14T05:33:31.933Z,76946.84
2022-11-14T05:36:04.107Z,76938.69
2022-11-14T05:38:32.243Z,76944.81
2022-11-14T05:41:00.569Z,76950.94
2022-11-14T05:43:31.653Z,76955.00
2022-11-14T05:46:00.743Z,76963.16
2022-11-14T05:48:29.411Z,76971.31
2022-11-14T05:50:58.271Z,76971.31
2022-11-14T05:53:26.961Z,76967.25
2022-11-14T05:55:55.265Z,76975.41
2022-11-14T05:58:23.248Z,76963.16
2022-11-14T06:00:54.463Z,76967.25
2022-11-14T06:03:22.748Z,76965.19
2022-11-14T06:05:50.540Z,76973.38
2022-11-14T06:08:18.313Z,76975.41
2022-11-14T06:10:46.120Z,76981.53
2022-11-14T06:13:13.891Z,76983.56
2022-11-14T06:15:41.658Z,76991.72
2022-11-14T06:18:10.859Z,77006.00
2022-11-14T06:20:38.633Z,77022.31
2022-11-14T06:23:06.514Z,77028.41
2022-11-14T06:25:34.335Z,77032.50
2022-11-14T06:28:02.100Z,77036.59
2022-11-14T06:30:29.849Z,77036.59
2022-11-14T06:32:59.193Z,77042.69
2022-11-14T06:35:28.770Z,77016.19
2022-11-14T06:37:56.537Z,76987.63
2022-11-14T06:40:24.417Z,76977.44
2022-11-14T06:42:52.234Z,76977.44
2022-11-14T06:45:20.053Z,76971.31
2022-11-14T06:47:47.843Z,76955.00
2022-11-14T06:50:15.768Z,76906.06
2022-11-14T06:52:44.930Z,76877.50
2022-11-14T06:55:12.740Z,76865.28
2022-11-14T06:57:40.504Z,76857.13
2022-11-14T07:00:09.597Z,76857.13
2022-11-14T07:02:37.435Z,76851.00
2022-11-14T07:05:05.805Z,76840.81
2022-11-14T07:07:33.602Z,76844.88
2022-11-14T07:10:02.833Z,76844.88
2022-11-14T07:12:32.676Z,76848.97
2022-11-14T07:15:00.456Z,76844.88
2022-11-14T07:17:31.231Z,76848.97
2022-11-14T07:19:59.415Z,76836.72
2022-11-14T07:22:27.168Z,76848.97
2022-11-14T07:24:54.949Z,76840.81
2022-11-14T07:27:24.143Z,76842.84
2022-11-14T07:29:51.983Z,76824.50
2022-11-14T07:32:19.751Z,76828.56
2022-11-14T07:34:47.520Z,76816.34
2022-11-14T07:37:15.413Z,76814.31
2022-11-14T07:39:43.199Z,76810.22
2022-11-14T07:42:11.002Z,76804.09
2022-11-14T07:44:40.219Z,76791.88
2022-11-14T07:47:08.035Z,76783.72
2022-11-14T07:49:35.826Z,76773.50
2022-11-14T07:52:03.650Z,76771.47
2022-11-14T07:54:31.504Z,76785.75
2022-11-14T07:56:59.258Z,76797.97
2022-11-14T07:59:27.072Z,76797.97
2022-11-14T08:01:56.169Z,76783.72
2022-11-14T08:04:23.957Z,76777.59
2022-11-14T08:06:51.792Z,76767.41
2022-11-14T08:09:19.624Z,76767.41
2022-11-14T08:11:50.173Z,76757.19
2022-11-14T08:14:18.022Z,76755.16
2022-11-14T08:16:45.888Z,76755.16
2022-11-14T08:19:16.716Z,76726.63
2022-11-14T08:21:44.569Z,76718.47
2022-11-14T08:24:12.483Z,76702.16
2022-11-14T08:26:40.590Z,76683.78
2022-11-14T08:29:08.473Z,76653.19
2022-11-14T08:31:36.253Z,76620.56
2022-11-14T08:34:04.189Z,76604.28
2022-11-14T08:36:33.337Z,76600.19
2022-11-14T08:39:02.248Z,76583.88
2022-11-14T08:41:30.238Z,76553.28
2022-11-14T08:43:58.088Z,76541.06
2022-11-14T08:46:25.947Z,76549.22
2022-11-14T08:48:53.768Z,76547.16
2022-11-14T08:51:21.933Z,76549.22
2022-11-14T08:53:52.341Z,76547.16
2022-11-14T08:56:20.296Z,76534.94
2022-11-14T08:58:48.140Z,76522.69
2022-11-14T09:01:16.125Z,76502.31
2022-11-14T09:03:44.064Z,76498.22
2022-11-14T09:06:11.989Z,76510.47
2022-11-14T09:08:39.795Z,76483.97
2022-11-14T09:11:10.060Z,76463.56
2022-11-14T09:13:38.273Z,76424.84
2022-11-14T09:16:06.737Z,76416.69
2022-11-14T09:18:34.560Z,76420.75
2022-11-14T09:21:03.122Z,76404.44
2022-11-14T09:23:31.370Z,76379.97
2022-11-14T09:25:59.621Z,76355.50
2022-11-14T09:28:28.801Z,76347.34
2022-11-14T09:31:01.763Z,76345.31
2022-11-14T09:33:30.224Z,76353.47
2022-11-14T09:35:59.033Z,76339.19
2022-11-14T09:38:27.672Z,76331.03
2022-11-14T09:41:10.324Z,76306.56
2022-11-14T09:44:05.327Z,76290.25
2022-11-14T09:46:38.305Z,76284.16
2022-11-14T09:49:12.592Z,76282.09
2022-11-14T09:51:48.981Z,76261.72
2022-11-14T09:54:21.889Z,76241.31
2022-11-14T09:56:49.859Z,76229.09
2022-11-14T09:59:19.312Z,76216.84
2022-11-14T10:01:58.334Z,76216.84
2022-11-14T10:04:37.510Z,76196.47
2022-11-14T10:07:16.969Z,76186.28
2022-11-14T10:09:56.998Z,76196.47
2022-11-14T10:12:32.841Z,76190.34
2022-11-14T10:15:15.667Z,76176.09
2022-11-14T10:18:20.759Z,76163.84
2022-11-14T10:20:55.094Z,76143.47
2022-11-14T10:23:36.097Z,76106.75
2022-11-14T10:26:12.341Z,76098.59
2022-11-14T10:28:49.688Z,76110.84
2022-11-14T10:31:33.805Z,76119.00
2022-11-14T10:34:07.205Z,76112.88
2022-11-14T10:36:51.046Z,76080.25
2022-11-14T10:39:23.459Z,76055.78
2022-11-14T10:41:59.830Z,76033.38
2022-11-14T10:44:35.369Z,76019.09
2022-11-14T10:47:08.293Z,75982.41
2022-11-14T10:49:38.644Z,75964.06
2022-11-14T10:52:11.712Z,75953.84
2022-11-14T10:54:45.641Z,75968.13
2022-11-14T10:57:17.182Z,75957.94
2022-11-14T10:59:45.220Z,75941.63
2022-11-14T11:02:14.782Z,75927.34
2022-11-14T11:04:43.844Z,75919.19
2022-11-14T11:07:47.916Z,75902.88
2022-11-14T11:10:41.742Z,75911.03
2022-11-14T11:13:15.597Z,75906.97
2022-11-14T11:15:44.126Z,75898.81
2022-11-14T11:18:29.959Z,75870.28
2022-11-14T11:21:08.055Z,75860.06
2022-11-14T11:23:37.076Z,75843.75
2022-11-14T11:26:08.992Z,75837.66
2022-11-14T11:28:38.269Z,75829.50
2022-11-14T11:31:07.989Z,75807.06
2022-11-14T11:33:38.539Z,75774.47
2022-11-14T11:36:13.150Z,75768.34
2022-11-14T11:38:41.673Z,75747.94
2022-11-14T11:41:33.388Z,75752.03
2022-11-14T11:44:13.666Z,75739.81
2022-11-14T11:46:48.708Z,75735.72
2022-11-14T11:49:24.701Z,75727.56
2022-11-14T11:51:56.894Z,75727.56
2022-11-14T11:54:29.526Z,75715.34
2022-11-14T11:57:02.675Z,75711.25
2022-11-14T11:59:34.503Z,75690.88
2022-11-14T12:02:04.525Z,75686.78
2022-11-14T12:04:33.728Z,75666.41
2022-11-14T12:07:09.594Z,75660.28
2022-11-14T12:10:09.429Z,75656.22
2022-11-14T12:12:49.301Z,75646.03
2022-11-14T12:15:25.271Z,75629.72
2022-11-14T12:18:22.611Z,75613.41
2022-11-14T12:21:05.896Z,75609.34
2022-11-14T12:23:53.409Z,75609.34
2022-11-14T12:26:36.214Z,75603.22
2022-11-14T12:29:26.233Z,75593.03
2022-11-14T12:31:59.920Z,75582.84
2022-11-14T12:34:32.561Z,75572.63
2022-11-14T12:37:08.372Z,75554.28
2022-11-14T12:39:37.388Z,75560.41
2022-11-14T12:42:07.721Z,75568.56
2022-11-14T12:44:38.901Z,75580.78
2022-11-14T12:47:16.520Z,75578.75
2022-11-14T12:50:36.353Z,75578.75
2022-11-14T12:53:43.243Z,75566.53
2022-11-14T12:56:22.455Z,75572.63
2022-11-14T12:59:10.137Z,75572.63
2022-11-14T13:01:56.229Z,75576.72
2022-11-14T13:04:33.573Z,75574.69
2022-11-14T13:07:34.040Z,75572.63
2022-11-14T13:10:15.591Z,75548.19
2022-11-14T13:13:07.390Z,75540.03
2022-11-14T13:15:56.136Z,75523.72
2022-11-14T13:18:43.929Z,75511.47
2022-11-14T13:21:44.768Z,75523.72
2022-11-14T13:24:14.322Z,75533.91
2022-11-14T13:26:51.591Z,75527.78
2022-11-14T13:29:57.756Z,75523.72
2022-11-14T13:33:02.235Z,75519.63
2022-11-14T13:35:52.967Z,75515.56
2022-11-14T13:38:54.468Z,75495.19
2022-11-14T13:41:47.854Z,75482.94
2022-11-14T13:44:44.178Z,75503.34
2022-11-14T13:47:27.104Z,75495.19
2022-11-14T13:50:01.646Z,75503.34
2022-11-14T13:52:32.346Z,75482.94
2022-11-14T13:55:01.308Z,75446.25
2022-11-14T13:57:42.927Z,75417.72
2022-11-14T14:00:20.108Z,75429.94
2022-11-14T14:03:20.728Z,75413.66
2022-11-14T14:06:15.027Z,75429.94
2022-11-14T14:08:58.870Z,75452.38
2022-11-14T14:11:48.338Z,75478.88
2022-11-14T14:14:34.614Z,75497.22
2022-11-14T14:17:12.862Z,75507.41
2022-11-14T14:19:52.927Z,75499.25
2022-11-14T14:22:29.245Z,75491.09
2022-11-14T14:25:04.360Z,75456.44
2022-11-14T14:27:38.818Z,75448.28
2022-11-14T14:30:12.232Z,75470.72
2022-11-14T14:32:41.418Z,75470.72
2022-11-14T14:35:32.614Z,75482.94
2022-11-14T14:38:04.694Z,75511.47
2022-11-14T14:40:34.427Z,75527.78
2022-11-14T14:43:03.942Z,75546.13
2022-11-14T14:45:46.287Z,75552.25
2022-11-14T14:48:17.220Z,75527.78
2022-11-14T14:50:50.781Z,75507.41
2022-11-14T14:53:21.651Z,75505.38
2022-11-14T14:55:55.769Z,75527.78
2022-11-14T14:58:27.742Z,75548.19
2022-11-14T15:00:59.022Z,75584.88
2022-11-14T15:03:36.590Z,75601.19
2022-11-14T15:06:07.763Z,75625.63
2022-11-14T15:08:39.255Z,75631.75
2022-11-14T15:11:08.158Z,75637.88
2022-11-14T15:13:38.663Z,75605.25
2022-11-14T15:16:07.739Z,75574.69
2022-11-14T15:18:37.938Z,75568.56
2022-11-14T15:21:10.941Z,75582.84
2022-11-14T15:23:39.786Z,75597.09
2022-11-14T15:26:15.547Z,75621.56
2022-11-14T15:28:43.474Z,75641.94
2022-11-14T15:31:19.759Z,75641.94
2022-11-14T15:34:02.126Z,75646.03
2022-11-14T15:36:30.049Z,75666.41
2022-11-14T15:39:02.832Z,75703.09
2022-11-14T15:41:31.797Z,75719.41
2022-11-14T15:44:02.921Z,75709.22
2022-11-14T15:46:42.681Z,75703.09
2022-11-14T15:49:20.646Z,75684.75
2022-11-14T15:51:51.207Z,75686.78
2022-11-14T15:54:24.484Z,75707.19
2022-11-14T15:56:53.128Z,75743.88
2022-11-14T15:59:21.149Z,75780.56
2022-11-14T16:01:52.876Z,75813.19
2022-11-14T16:04:26.531Z,75821.34
2022-11-14T16:06:54.403Z,75845.81
2022-11-14T16:09:24.101Z,75843.75
2022-11-14T16:11:52.120Z,75858.03
2022-11-14T16:14:19.945Z,75866.19
2022-11-14T16:16:47.738Z,75866.19
2022-11-14T16:19:17.292Z,75856.00
2022-11-14T16:21:46.539Z,75860.06
2022-11-14T16:24:19.614Z,75864.16
2022-11-14T16:26:47.843Z,75882.50
2022-11-14T16:29:16.268Z,75896.78
2022-11-14T16:31:44.051Z,75906.97
2022-11-14T16:34:20.902Z,75906.97
2022-11-14T16:36:57.897Z,75906.97
2022-11-14T16:39:25.915Z,75902.88
2022-11-14T16:41:53.723Z,75902.88
2022-11-14T16:44:21.526Z,75906.97
2022-11-14T16:46:49.402Z,75923.28
2022-11-14T16:49:19.649Z,75927.34
2022-11-14T16:51:50.988Z,75939.59
2022-11-14T16:54:20.297Z,75933.47
2022-11-14T16:56:48.477Z,75943.66
2022-11-14T16:59:16.761Z,75947.75
2022-11-14T17:01:44.679Z,75943.66
2022-11-14T17:04:12.638Z,75949.78
2022-11-14T17:06:40.791Z,75959.97
2022-11-14T17:09:14.203Z,75951.81
2022-11-14T17:11:42.034Z,75955.91
2022-11-14T17:14:09.886Z,75957.94
2022-11-14T17:16:37.681Z,75959.97
2022-11-14T17:19:05.545Z,75966.09
2022-11-14T17:21:33.408Z,75980.34
2022-11-14T17:24:02.855Z,75978.31
2022-11-14T17:26:31.992Z,75988.50
2022-11-14T17:28:59.838Z,75996.66
2022-11-14T17:31:27.619Z,76000.75
2022-11-14T17:33:56.745Z,75996.66
2022-11-14T17:36:25.745Z,76004.81
2022-11-14T17:38:54.176Z,76002.78
2022-11-14T17:41:21.995Z,76012.97
2022-11-14T17:43:56.636Z,76021.13
2022-11-14T17:46:24.464Z,76025.22
2022-11-14T17:48:52.285Z,76017.06
2022-11-14T17:51:20.097Z,76012.97
2022-11-14T17:53:47.903Z,76023.19
2022-11-14T17:56:17.734Z,76017.06
2022-11-14T17:58:45.946Z,76021.13
2022-11-14T18:01:20.543Z,76017.06
2022-11-14T18:03:48.666Z,76015.03
2022-11-14T18:06:19.150Z,76012.97
2022-11-14T18:08:47.652Z,76000.75
2022-11-14T18:11:18.277Z,76008.91
2022-11-14T18:13:46.271Z,76000.75
2022-11-14T18:16:15.782Z,75996.66
2022-11-14T18:18:45.374Z,75998.72
2022-11-14T18:21:15.970Z,75996.66
2022-11-14T18:23:44.313Z,75998.72
2022-11-14T18:26:12.533Z,75992.59
2022-11-14T18:28:41.123Z,75988.50
2022-11-14T18:31:10.944Z,75980.34
2022-11-14T18:33:39.831Z,75986.47
2022-11-14T18:36:13.012Z,75988.50
2022-11-14T18:38:41.744Z,76006.88
2022-11-14T18:41:11.725Z,76004.81
2022-11-14T18:43:39.533Z,76012.97
2022-11-14T18:46:09.418Z,76019.09
2022-11-14T18:48:38.602Z,76021.13
2022-11-14T18:51:08.637Z,76025.22
2022-11-14T18:53:38.103Z,76023.19
2022-11-14T18:56:06.522Z,76029.28
2022-11-14T18:58:36.048Z,76037.44
2022-11-14T19:01:12.604Z,76033.38
2022-11-14T19:03:40.913Z,76025.22
2022-11-14T19:06:11.105Z,76029.28
2022-11-14T19:08:40.660Z,76035.41
2022-11-14T19:11:31.635Z,76041.53
2022-11-14T19:14:03.000Z,76041.53
2022-11-14T19:16:31.569Z,76059.88
2022-11-14T19:19:00.027Z,76061.91
2022-11-14T19:21:28.814Z,76074.16
2022-11-14T19:23:59.513Z,76070.06
2022-11-14T19:26:28.292Z,76070.06
2022-11-14T19:28:56.648Z,76068.03
2022-11-14T19:31:25.182Z,76066.00
2022-11-14T19:33:52.959Z,76076.19
2022-11-14T19:36:52.641Z,76082.28
2022-11-14T19:39:13.867Z,76094.53
2022-11-14T19:41:41.827Z,76114.91
2022-11-14T19:44:09.949Z,76127.16
2022-11-14T19:46:37.773Z,76145.50
2022-11-14T19:49:07.359Z,76155.69
2022-11-14T19:51:35.877Z,76169.97
2022-11-14T19:54:04.046Z,76176.09
2022-11-14T19:56:33.177Z,76188.31
2022-11-14T19:59:02.192Z,76196.47
2022-11-14T20:01:30.647Z,76206.66
2022-11-14T20:04:00.178Z,76200.56
2022-11-14T20:06:30.270Z,76204.63
2022-11-14T20:08:59.445Z,76210.75
2022-11-14T20:11:29.100Z,76208.69
2022-11-14T20:14:01.154Z,76220.94
2022-11-14T20:16:31.501Z,76218.91
2022-11-14T20:19:01.692Z,76225.00
2022-11-14T20:21:32.049Z,76233.16
2022-11-14T20:24:00.585Z,76237.25
2022-11-14T20:26:28.688Z,76249.47
2022-11-14T20:28:59.815Z,76249.47
2022-11-14T20:31:30.003Z,76257.63
2022-11-14T20:33:57.946Z,76265.78
2022-11-14T20:36:31.999Z,76278.03
2022-11-14T20:39:03.307Z,76284.16
2022-11-14T20:41:31.474Z,76290.25
2022-11-14T20:44:01.651Z,76290.25
2022-11-14T20:46:29.573Z,76296.38
2022-11-14T20:48:58.198Z,76302.50
2022-11-14T20:51:28.076Z,76302.50
2022-11-14T20:53:56.513Z,76306.56
2022-11-14T20:56:24.411Z,76314.72
2022-11-14T20:58:52.904Z,76312.69
2022-11-14T21:01:22.477Z,76314.72
2022-11-14T21:03:50.565Z,76322.88
2022-11-14T21:06:19.112Z,76326.97
2022-11-14T21:08:46.965Z,76331.03
2022-11-14T21:11:18.231Z,76331.03
2022-11-14T21:13:58.876Z,76335.13
2022-11-14T21:16:32.399Z,76339.19
2022-11-14T21:19:01.371Z,76343.28
2022-11-14T21:21:30.435Z,76349.38
2022-11-14T21:23:58.639Z,76339.19
2022-11-14T21:26:27.766Z,76347.34
2022-11-14T21:28:57.512Z,76339.19
2022-11-14T21:31:31.682Z,76343.28
2022-11-14T21:34:00.982Z,76343.28
2022-11-14T21:36:46.765Z,76351.44
2022-11-14T21:39:16.827Z,76355.50
2022-11-14T21:41:48.272Z,76351.44
2022-11-14T21:44:18.071Z,76345.31
2022-11-14T21:46:48.619Z,76349.38
2022-11-14T21:49:16.662Z,76351.44
2022-11-14T21:51:44.458Z,76353.47
2022-11-14T21:54:12.317Z,76355.50
2022-11-14T21:56:40.067Z,76375.91
2022-11-14T21:59:14.915Z,76379.97
2022-11-14T22:02:02.174Z,76382.00
2022-11-14T22:04:32.398Z,76377.94
2022-11-14T22:07:00.747Z,76379.97
2022-11-14T22:09:29.268Z,76379.97
2022-11-14T22:11:57.424Z,76379.97
2022-11-14T22:14:25.723Z,76382.00
2022-11-14T22:16:53.556Z,76379.97
2022-11-14T22:19:21.625Z,76398.31
2022-11-14T22:21:51.007Z,76420.75
2022-11-14T22:24:18.795Z,76422.78
2022-11-14T22:26:46.691Z,76418.72
2022-11-14T22:29:14.534Z,76424.84
2022-11-14T22:31:42.417Z,76424.84
2022-11-14T22:34:11.772Z,76420.75
2022-11-14T22:36:39.621Z,76432.97
2022-11-14T22:39:08.749Z,76443.19
2022-11-14T22:41:36.522Z,76449.28
2022-11-14T22:44:04.495Z,76453.38
2022-11-14T22:46:32.241Z,76453.38
2022-11-14T22:49:00.248Z,76451.34
2022-11-14T22:51:29.057Z,76457.44
2022-11-14T22:53:58.562Z,76467.66
2022-11-14T22:56:30.012Z,76473.75
2022-11-14T22:59:00.343Z,76477.84
2022-11-14T23:01:29.753Z,76477.84
2022-11-14T23:03:59.488Z,76475.81
2022-11-14T23:06:28.577Z,76473.75
2022-11-14T23:08:56.838Z,76477.84
2022-11-14T23:11:28.198Z,76477.84
2022-11-14T23:13:57.609Z,76475.81
2022-11-14T23:16:27.254Z,76475.81
2022-11-14T23:18:56.936Z,76471.72
2022-11-14T23:21:27.686Z,76471.72
2022-11-14T23:23:55.803Z,76461.53
2022-11-14T23:26:24.422Z,76465.63
2022-11-14T23:28:54.803Z,76469.69
2022-11-14T23:31:22.795Z,76471.72
2022-11-14T23:33:52.287Z,76475.81
2022-11-14T23:36:20.472Z,76477.84
2022-11-14T23:38:48.473Z,76469.69
2022-11-14T23:41:18.901Z,76465.63
2022-11-14T23:43:47.343Z,76473.75
2022-11-14T23:46:16.945Z,76477.84
2022-11-14T23:48:44.809Z,76473.75
2022-11-14T23:51:13.713Z,76465.63
2022-11-14T23:53:41.822Z,76465.63
2022-11-14T23:56:13.014Z,76469.69
2022-11-14T23:58:41.623Z,76473.75
